• Join FlightAware (Why Join?)
  • Login
  • US Flag GB Flag 
01:03 EDT


 

Airport Tracker/Info


-or-


 

Live Flight TrackerFlight Track Log ✈ FSR411 ✈ 17-Dec-2013 ✈ KGKY - KCMI

Flight Track Log - Related Links

Times and Time Zones

All times are in EST time to prevent confusion due to time zone crossing. See the FSR411 flight status page for this flight to view local times or setup timezone preferences in your user account.

Time Position Orientation Groundspeed Altitude Reporting Facility
EST Latitude Longitude Course Direction KTS MPH feet Rate Location/Type
23:54 32.6500 -97.0833 171° South 167 192 1,300  Level Dallas / Fort Worth TRACON
23:55 32.5939 -97.0731 171° South 207 238 3,100 2,460 Climbing Fort Worth Center
23:56 32.5258 -97.0392 157° South 252 290 6,500 3,300 Climbing Fort Worth Center
23:57 32.5517 -96.9572 69° East 280 322 9,800 3,180 Climbing Fort Worth Center
23:58 32.6211 -96.8914 39° Northeast 315 362 13,000 3,360 Climbing Fort Worth Center
23:59 32.7014 -96.8100 40° Northeast 371 427 16,700 3,480 Climbing Fort Worth Center
00:00 32.7847 -96.7256 40° Northeast 395 455 20,100 3,120 Climbing Fort Worth Center
00:01 32.8703 -96.6367 41° Northeast 408 470 23,100 2,760 Climbing Fort Worth Center
00:02 32.9500 -96.5553 41° Northeast 425 489 25,700 2,520 Climbing Fort Worth Center
00:03 33.0394 -96.4636 41° Northeast 426 490 28,300 2,400 Climbing Fort Worth Center
00:04 33.1511 -96.3483 41° Northeast 442 509 30,600 2,220 Climbing Fort Worth Center
00:05 33.2447 -96.2517 41° Northeast 446 513 32,800 2,040 Climbing Fort Worth Center
00:06 33.3356 -96.1556 41° Northeast 437 503 34,800 1,920 Climbing Fort Worth Center
00:07 33.4267 -96.0603 41° Northeast 437 503 36,700 1,680 Climbing Fort Worth Center
00:08 33.5161 -95.9669 41° Northeast 430 495 38,300 1,320 Climbing Fort Worth Center
00:09 33.6047 -95.8739 41° Northeast 426 490 39,500 1,080 Climbing Fort Worth Center
00:10 33.6933 -95.7808 41° Northeast 424 488 40,500 720 Climbing Fort Worth Center
00:11 33.7842 -95.6861 41° Northeast 430 495 41,000 240 Climbing Fort Worth Center
00:12 33.8767 -95.5878 41° Northeast 442 509 41,000  Level Fort Worth Center
00:13 33.9656 -95.4942 41° Northeast 457 526 41,000  Level Fort Worth Center
00:14 34.0611 -95.3928 41° Northeast 457 526 41,000  Level Fort Worth Center
00:15 34.1569 -95.2908 41° Northeast 459 528 41,000  Level Fort Worth Center
00:16 34.2658 -95.1731 42° Northeast 441 507 41,000  Level Fort Worth Center
00:17 34.3603 -95.0728 41° Northeast 449 517 41,000  Level Fort Worth Center
00:18 34.4550 -94.9706 42° Northeast 453 521 41,000  Level Fort Worth Center
00:19 34.5481 -94.8694 42° Northeast 450 518 41,000  Level Fort Worth Center
00:20 34.6417 -94.7694 41° Northeast 449 517 41,000  Level Fort Worth Center
00:21 34.7339 -94.6686 42° Northeast 446 513 41,000  Level Fort Worth Center
00:22 34.8272 -94.5656 42° Northeast 450 518 41,000  Level Fort Worth Center
00:23 34.9258 -94.4586 42° Northeast 450 518 41,000  Level Fort Worth Center
00:24 35.0181 -94.3572 42° Northeast 446 513 41,000  Level Fort Worth Center
00:25 35.1106 -94.2547 42° Northeast 448 516 41,000  Level Fort Worth Center
00:26 35.1919 -94.1644 42° Northeast 446 513 41,000  Level Fort Worth Center
00:27 35.2856 -94.0617 42° Northeast 450 518 41,000  Level Memphis Center
00:28 35.3778 -93.9583 42° Northeast 450 518 41,000  Level Memphis Center
00:29 35.4706 -93.8561 42° Northeast 449 517 41,000  Level Memphis Center
00:30 35.5631 -93.7514 43° Northeast 449 517 41,000  Level Memphis Center
00:31 35.6547 -93.6483 42° Northeast 447 514 41,000  Level Memphis Center
00:32 35.7467 -93.5458 42° Northeast 445 512 41,000  Level Memphis Center
00:33 35.8378 -93.4408 43° Northeast 445 512 41,000  Level Memphis Center
00:34 35.9294 -93.3372 42° Northeast 445 512 41,000  Level Memphis Center
00:35 36.0208 -93.2336 43° Northeast 445 512 41,000  Level Memphis Center
00:36 36.1128 -93.1292 43° Northeast 446 513 41,000  Level Memphis Center
00:37 36.2044 -93.0239 43° Northeast 448 516 41,000  Level Memphis Center
00:38 36.2969 -92.9197 42° Northeast 449 517 41,000  Level Memphis Center
00:39 36.3881 -92.8128 43° Northeast 448 516 41,000  Level Memphis Center
00:40 36.4794 -92.7067 43° Northeast 451 519 41,000  Level Memphis Center
00:41 36.5700 -92.6014 43° Northeast 449 517 41,000  Level Memphis Center
00:42 36.6614 -92.4956 43° Northeast 447 514 41,000  Level Memphis Center
00:43 36.7528 -92.3894 43° Northeast 447 514 41,000  Level Memphis Center
00:44 36.8614 -92.2639 43° Northeast 443 510 41,000  Level Kansas City Center
00:45 36.9519 -92.1564 43° Northeast 445 512 41,000  Level Kansas City Center
00:46 37.0414 -92.0506 43° Northeast 445 512 41,000  Level Kansas City Center
00:47 37.1325 -91.9414 44° Northeast 448 516 41,000  Level Kansas City Center
00:48 37.2225 -91.8336 44° Northeast 448 516 41,000  Level Kansas City Center
00:49 37.3122 -91.7269 43° Northeast 446 513 41,000  Level Kansas City Center
00:50 37.4022 -91.6197 43° Northeast 445 512 41,000  Level Kansas City Center
00:51 37.4908 -91.5133 44° Northeast 443 510 41,000  Level Kansas City Center
00:52 37.5811 -91.4058 43° Northeast 445 512 41,000  Level Kansas City Center
00:53 37.6697 -91.2972 44° Northeast 445 512 41,000  Level Kansas City Center
00:54 37.7589 -91.1900 44° Northeast 443 510 41,000  Level Kansas City Center
00:55 37.8478 -91.0811 44° Northeast 444 511 41,000  Level Kansas City Center
00:56 37.9428 -90.9642 44° Northeast 445 512 41,000  Level Kansas City Center
00:57 38.0319 -90.8561 44° Northeast 445 512 41,000  Level Kansas City Center
00:58 38.1197 -90.7458 45° Northeast 445 512 41,000  Level Kansas City Center
00:59 38.2083 -90.6369 44° Northeast 445 512 41,000 -480 Level Kansas City Center
01:00 38.2953 -90.5283 44° Northeast 441 507 40,100 -1,080 Descending Kansas City Center
01:01 38.3831 -90.4181 45° Northeast 445 512 38,900 -1,440 Descending Kansas City Center
01:02 38.4875 -90.2881 44° Northeast 448 516 37,200 -1,740 Descending Kansas City Center
01:03 38.5778 -90.1775 44° Northeast 447 514 35,500 -1,740 Descending Kansas City Center
01:04 38.6642 -90.0644 46° Northeast 445 512 33,700 -1,920 Descending Kansas City Center
01:05 38.7531 -89.9533 44° Northeast 457 526 31,700 -2,040 Descending Kansas City Center
01:06 38.8406 -89.8417 45° Northeast 451 519 29,700 -2,040 Descending Kansas City Center
01:07 38.9292 -89.7289 45° Northeast 450 518 27,700 -2,040 Descending Kansas City Center
01:08 39.0139 -89.6219 44° Northeast 433 498 25,700 -2,040 Descending Kansas City Center
01:09 39.0972 -89.5142 45° Northeast 426 490 23,600 -2,040 Descending Kansas City Center
01:10 39.1800 -89.4078 45° Northeast 423 487 21,600 -2,040 Descending Kansas City Center
01:11 39.2611 -89.3011 46° Northeast 419 482 19,600 -1,860 Descending Kansas City Center
01:12 39.3392 -89.2003 45° Northeast 405 466 17,900 -1,860 Descending Kansas City Center
01:13 39.4158 -89.1011 45° Northeast 395 455 15,900 -2,040 Descending Kansas City Center
01:14 39.4933 -89.0000 45° Northeast 388 447 13,800 -2,040 Descending Kansas City Center
01:15 39.5647 -88.9069 45° Northeast 371 427 11,900 -1,860 Descending Kansas City Center
01:16 39.6258 -88.8261 46° Northeast 327 376 10,100 -1,800 Descending Kansas City Center
01:17 39.6806 -88.7542 45° Northeast 291 335 8,300 -1,860 Descending Kansas City Center
01:18 39.7331 -88.6853 45° Northeast 274 315 6,400 -1,920 Descending Kansas City Center
01:19 39.7806 -88.6100 51° Northeast 271 312 4,500 -1,440 Descending Kansas City Center
01:20 39.8158 -88.5136 64° Northeast 273 314 3,500 -1,020 Descending Kansas City Center
01:23 39.9635 -88.3623 44° Northeast  Level FlightAware Approximate